createdAt,value
2023-01-13T00:01:29.256Z,98982.03
2023-01-13T00:03:57.637Z,98990.28
2023-01-13T00:06:26.010Z,98978.03
2023-01-13T00:08:53.840Z,98971.56
2023-01-13T00:11:22.614Z,98977.97
2023-01-13T00:13:52.360Z,98984.75
2023-01-13T00:16:20.996Z,98993.66
2023-01-13T00:18:49.185Z,98980.66
2023-01-13T00:21:24.441Z,98983.25
2023-01-13T00:23:55.579Z,98982.28
2023-01-13T00:26:32.403Z,98969.22
2023-01-13T00:29:00.503Z,98975.34
2023-01-13T00:31:29.807Z,98967.47
2023-01-13T00:33:59.063Z,98979.38
2023-01-13T00:36:26.665Z,99021.53
2023-01-13T00:38:56.697Z,99021.81
2023-01-13T00:41:26.819Z,99019.19
2023-01-13T00:43:53.621Z,99016.44
2023-01-13T00:46:22.677Z,99016.84
2023-01-13T00:48:51.790Z,99022.50
2023-01-13T00:51:21.131Z,99014.19
2023-01-13T00:53:51.445Z,99018.19
2023-01-13T00:56:39.324Z,99015.03
2023-01-13T00:59:12.556Z,99029.31
2023-01-13T01:01:41.373Z,99035.38
2023-01-13T01:04:08.408Z,99029.03
2023-01-13T01:06:35.091Z,99000.72
2023-01-13T01:09:02.209Z,99025.56
2023-01-13T01:11:33.135Z,99028.75
2023-01-13T01:14:04.122Z,99033.28
2023-01-13T01:16:33.553Z,99039.84
2023-01-13T01:19:01.600Z,99036.50
2023-01-13T01:21:29.045Z,99047.53
2023-01-13T01:23:59.651Z,99057.13
2023-01-13T01:26:29.737Z,99057.28
2023-01-13T01:28:57.042Z,99057.44
2023-01-13T01:31:31.362Z,99070.00
2023-01-13T01:33:59.844Z,99074.34
2023-01-13T01:36:29.999Z,99059.97
2023-01-13T01:38:59.322Z,99060.94
2023-01-13T01:41:34.479Z,99055.78
2023-01-13T01:44:43.407Z,99055.41
2023-01-13T01:47:18.204Z,99055.78
2023-01-13T01:49:47.811Z,99058.78
2023-01-13T01:52:36.759Z,99055.44
2023-01-13T01:55:17.925Z,99060.47
2023-01-13T01:58:21.193Z,99051.28
2023-01-13T02:00:48.546Z,99055.81
2023-01-13T02:03:18.469Z,99056.34
2023-01-13T02:05:45.227Z,99068.06
2023-01-13T02:08:17.527Z,99080.44
2023-01-13T02:10:54.117Z,99079.63
2023-01-13T02:13:29.338Z,99068.56
2023-01-13T02:16:24.600Z,99104.72
2023-01-13T02:19:27.356Z,99108.59
2023-01-13T02:23:00.545Z,99066.88
2023-01-13T02:26:16.860Z,99077.13
2023-01-13T02:30:09.056Z,99062.03
2023-01-13T02:33:28.120Z,99066.22
2023-01-13T02:36:56.274Z,99074.06
2023-01-13T02:40:01.559Z,99073.03
2023-01-13T02:42:53.318Z,99070.19
2023-01-13T02:45:32.173Z,99067.31
2023-01-13T02:48:04.703Z,99066.47
2023-01-13T02:50:48.771Z,99059.75
2023-01-13T02:53:29.093Z,99057.56
2023-01-13T02:56:01.959Z,99050.38
2023-01-13T02:58:36.462Z,99048.31
2023-01-13T03:01:03.813Z,99044.59
2023-01-13T03:03:30.536Z,99050.78
2023-01-13T03:06:10.744Z,99048.44
2023-01-13T03:09:21.819Z,99046.94
2023-01-13T03:12:21.124Z,99049.56
2023-01-13T03:15:28.383Z,99045.56
2023-01-13T03:18:18.080Z,99051.44
2023-01-13T03:21:20.856Z,99063.09
2023-01-13T03:24:36.682Z,99056.56
2023-01-13T03:27:35.730Z,99067.75
2023-01-13T03:30:12.864Z,99062.25
2023-01-13T03:32:49.302Z,99069.78
2023-01-13T03:35:28.091Z,99058.88
2023-01-13T03:38:09.419Z,99051.06
2023-01-13T03:40:50.873Z,99058.94
2023-01-13T03:43:51.457Z,99062.31
2023-01-13T03:46:33.979Z,99070.22
2023-01-13T03:49:08.139Z,99068.25
2023-01-13T03:51:47.847Z,99066.69
2023-01-13T03:54:21.644Z,99068.63
2023-01-13T03:56:59.613Z,99075.63
2023-01-13T03:59:38.662Z,99070.63
2023-01-13T04:02:49.788Z,99077.72
2023-01-13T04:05:18.587Z,99066.50
2023-01-13T04:08:12.403Z,99072.00
2023-01-13T04:10:58.937Z,99071.03
2023-01-13T04:13:33.912Z,99062.22
2023-01-13T04:16:01.317Z,99071.00
2023-01-13T04:18:31.491Z,99075.66
2023-01-13T04:21:02.129Z,99074.66
2023-01-13T04:23:32.733Z,99071.63
2023-01-13T04:25:59.870Z,99074.16
2023-01-13T04:28:27.563Z,99067.16
2023-01-13T04:30:54.300Z,99070.00
2023-01-13T04:33:23.910Z,99070.81
2023-01-13T04:35:54.217Z,99074.81
2023-01-13T04:38:22.367Z,99062.78
2023-01-13T04:40:49.199Z,99065.06
2023-01-13T04:43:16.587Z,99054.38
2023-01-13T04:45:44.723Z,99059.34
2023-01-13T04:48:12.133Z,99067.38
2023-01-13T04:50:43.621Z,99065.56
2023-01-13T04:53:11.007Z,99061.38
2023-01-13T04:55:37.872Z,99063.41
2023-01-13T04:58:13.555Z,99060.84
2023-01-13T05:00:43.209Z,99064.69
2023-01-13T05:03:10.259Z,99065.47
2023-01-13T05:05:37.892Z,99059.00
2023-01-13T05:08:08.230Z,99060.50
2023-01-13T05:10:35.254Z,99058.28
2023-01-13T05:13:20.785Z,99053.06
2023-01-13T05:16:06.999Z,99051.22
2023-01-13T05:18:33.979Z,99071.13
2023-01-13T05:21:00.602Z,99055.94
2023-01-13T05:23:46.568Z,99060.28
2023-01-13T05:26:13.543Z,99072.81
2023-01-13T05:28:43.286Z,99070.63
2023-01-13T05:31:12.010Z,99073.34
2023-01-13T05:33:38.637Z,99056.28
2023-01-13T05:36:05.957Z,99055.47
2023-01-13T05:38:32.652Z,99052.34
2023-01-13T05:41:19.101Z,99058.03
2023-01-13T05:43:46.134Z,99054.47
2023-01-13T05:46:13.132Z,99059.19
2023-01-13T05:48:43.751Z,99060.56
2023-01-13T05:51:13.104Z,99056.06
2023-01-13T05:53:43.010Z,99061.72
2023-01-13T05:56:10.229Z,99060.69
2023-01-13T05:58:37.789Z,99055.53
2023-01-13T06:01:09.394Z,99060.50
2023-01-13T06:03:43.846Z,99051.81
2023-01-13T06:06:10.625Z,99054.78
2023-01-13T06:08:40.188Z,99056.59
2023-01-13T06:11:07.131Z,99052.59
2023-01-13T06:13:33.945Z,99041.41
2023-01-13T06:16:00.756Z,99054.75
2023-01-13T06:18:28.747Z,99048.84
2023-01-13T07:35:04.713Z,99026.72
2023-01-13T07:37:37.187Z,99024.06
2023-01-13T08:21:19.143Z,99026.72
2023-01-13T08:23:48.719Z,99027.88
2023-01-13T08:26:18.458Z,99028.53
2023-01-13T08:28:46.455Z,99025.38
2023-01-13T08:31:16.911Z,99024.03
2023-01-13T08:33:44.149Z,99020.69
2023-01-13T08:36:12.739Z,99016.16
2023-01-13T08:38:43.532Z,99009.25
2023-01-13T08:41:14.383Z,99020.34
2023-01-13T08:43:41.511Z,99006.78
2023-01-13T08:46:08.335Z,99012.09
2023-01-13T08:48:35.711Z,99024.69
2023-01-13T08:51:11.009Z,99014.78
2023-01-13T08:53:40.505Z,99017.28
2023-01-13T08:56:13.061Z,99012.75
2023-01-13T08:58:40.878Z,99008.91
2023-01-13T09:01:09.979Z,99011.06
2023-01-13T09:03:36.868Z,99001.84
2023-01-13T09:06:04.069Z,99007.06
2023-01-13T09:08:30.997Z,99005.88
2023-01-13T09:10:58.104Z,98999.31
2023-01-13T09:13:25.248Z,98999.09
2023-01-13T09:15:55.863Z,98996.41
2023-01-13T09:18:22.638Z,98995.06
2023-01-13T09:20:53.826Z,98993.06
2023-01-13T09:23:20.622Z,99011.00
2023-01-13T09:25:49.467Z,98998.44
2023-01-13T09:28:16.079Z,99009.84
2023-01-13T09:30:42.630Z,99008.19
2023-01-13T09:33:27.945Z,99003.66
2023-01-13T09:35:59.206Z,99008.19
2023-01-13T09:38:25.881Z,99005.84
2023-01-13T09:40:53.851Z,98998.31
2023-01-13T09:43:54.356Z,99015.91
2023-01-13T09:46:51.399Z,99012.56
2023-01-13T09:49:29.525Z,98999.69
2023-01-13T09:52:16.737Z,98999.69
2023-01-13T09:54:55.509Z,99002.16
2023-01-13T10:44:19.133Z,99011.94
2023-01-13T10:56:20.316Z,99013.53
2023-01-13T10:58:47.176Z,99012.88
2023-01-13T11:01:26.874Z,98997.59
2023-01-13T11:03:56.924Z,98990.16
2023-01-13T11:06:33.315Z,98990.81
2023-01-13T11:09:00.025Z,98996.03
2023-01-13T11:11:44.888Z,99001.31
2023-01-13T11:14:47.000Z,98994.13
2023-01-13T11:17:45.450Z,99005.94
2023-01-13T11:20:11.970Z,98999.63
2023-01-13T11:22:47.257Z,98999.69
2023-01-13T11:25:33.426Z,99009.41
2023-01-13T11:28:19.869Z,99001.53
2023-01-13T11:31:04.566Z,99001.06
2023-01-13T11:33:53.358Z,98978.78
2023-01-13T11:36:52.434Z,99003.75
2023-01-13T11:39:44.447Z,98984.16
2023-01-13T11:43:03.628Z,98988.66
2023-01-13T11:45:42.068Z,98993.69
2023-01-13T11:48:17.697Z,99000.19
2023-01-13T11:51:14.801Z,98989.47
2023-01-13T11:54:12.561Z,98979.41
2023-01-13T11:57:36.293Z,99013.25
2023-01-13T12:01:07.001Z,98969.50
2023-01-13T12:03:43.558Z,98974.22
2023-01-13T12:06:42.250Z,98980.91
2023-01-13T12:09:44.476Z,98968.34
2023-01-13T12:13:20.283Z,98986.94
2023-01-13T12:16:23.692Z,98991.13
2023-01-13T12:19:20.166Z,98987.47
2023-01-13T12:22:29.101Z,98986.94
2023-01-13T12:25:17.783Z,98998.38
2023-01-13T12:28:29.486Z,98994.53
2023-01-13T12:31:03.669Z,99008.94
2023-01-13T12:34:01.783Z,99002.25
2023-01-13T12:37:10.024Z,99013.00
2023-01-13T12:40:16.665Z,99001.91
2023-01-13T12:43:21.857Z,98999.59
2023-01-13T12:45:48.731Z,98998.09
2023-01-13T12:48:54.958Z,99008.13
2023-01-13T12:51:57.877Z,98997.25
2023-01-13T12:54:30.332Z,99002.41
2023-01-13T12:56:59.199Z,98999.94
2023-01-13T12:59:25.786Z,99009.13
2023-01-13T13:02:13.088Z,99009.97
2023-01-13T13:05:22.736Z,98993.91
2023-01-13T13:08:37.228Z,98999.06
2023-01-13T13:12:12.077Z,99009.94
2023-01-13T13:14:47.190Z,99003.41
2023-01-13T13:17:19.724Z,99008.28
2023-01-13T13:19:49.348Z,98990.19
2023-01-13T13:22:33.384Z,99001.91
2023-01-13T13:25:00.095Z,99012.66
2023-01-13T13:27:47.061Z,99007.91
2023-01-13T13:30:36.386Z,99004.25
2023-01-13T13:33:30.074Z,99010.75
2023-01-13T13:36:43.148Z,99007.91
2023-01-13T13:39:49.005Z,99026.00
2023-01-13T13:42:45.030Z,98986.63
2023-01-13T13:45:45.589Z,99022.50
2023-01-13T13:48:29.288Z,99018.81
2023-01-13T13:51:04.101Z,99005.91
2023-01-13T13:53:41.360Z,99023.00
2023-01-13T13:56:42.038Z,99014.63
2023-01-13T13:59:18.993Z,99039.75
2023-01-13T14:02:01.485Z,99030.03
2023-01-13T14:04:37.139Z,99028.72
2023-01-13T14:07:20.762Z,99044.81
2023-01-13T14:09:55.786Z,99042.13
2023-01-13T14:12:27.122Z,99041.75
2023-01-13T14:14:59.850Z,99048.13
2023-01-13T14:17:30.975Z,99049.13
2023-01-13T14:20:17.817Z,99046.97
2023-01-13T14:22:54.129Z,99045.78
2023-01-13T14:25:46.697Z,99055.00
2023-01-13T14:28:13.325Z,99052.00
2023-01-13T14:30:47.407Z,99051.63
2023-01-13T14:33:30.435Z,99034.22
2023-01-13T14:36:18.994Z,99041.44
2023-01-13T14:39:07.734Z,99050.81
2023-01-13T14:41:38.258Z,99049.81
2023-01-13T14:44:35.903Z,99053.50
2023-01-13T14:47:20.113Z,99049.81
2023-01-13T14:50:04.923Z,99053.16
2023-01-13T14:52:48.282Z,99064.72
2023-01-13T14:55:43.398Z,99056.34
2023-01-13T14:58:28.535Z,99056.84
2023-01-13T15:01:41.715Z,99066.75
2023-01-13T15:04:38.264Z,99070.56
2023-01-13T15:07:20.464Z,99061.38
2023-01-13T15:09:47.584Z,99057.00
2023-01-13T15:12:35.615Z,99074.59
2023-01-13T15:15:23.978Z,99075.44
2023-01-13T15:17:52.224Z,99069.72
2023-01-13T15:20:24.451Z,99086.75
2023-01-13T15:22:52.606Z,99083.91
2023-01-13T15:25:20.249Z,99083.38
2023-01-13T15:27:51.724Z,99092.75
2023-01-13T15:30:25.005Z,99094.59
2023-01-13T15:32:56.180Z,99103.47
2023-01-13T15:35:27.076Z,99090.59
2023-01-13T15:37:57.374Z,99094.97
2023-01-13T15:40:33.208Z,99094.97
2023-01-13T15:43:21.596Z,99100.31
2023-01-13T15:46:07.112Z,99089.91
2023-01-13T15:48:35.769Z,99115.03
2023-01-13T15:51:04.391Z,99120.69
2023-01-13T15:53:31.294Z,99121.72
2023-01-13T15:56:00.195Z,99124.72
2023-01-13T15:58:30.518Z,99118.50
2023-01-13T16:00:57.705Z,99110.31
2023-01-13T16:03:24.599Z,99128.38
2023-01-13T16:05:51.314Z,99131.88
2023-01-13T16:08:23.428Z,99133.22
2023-01-13T16:10:50.684Z,99130.38
2023-01-13T16:13:18.177Z,99127.84
2023-01-13T16:15:50.149Z,99135.72
2023-01-13T16:18:26.359Z,99131.06
2023-01-13T16:20:55.029Z,99154.16
2023-01-13T16:23:23.071Z,99139.28
2023-01-13T16:25:50.950Z,99152.47
2023-01-13T16:28:28.129Z,99156.97
2023-01-13T16:30:54.954Z,99155.72
2023-01-13T16:33:21.783Z,99139.41
2023-01-13T16:36:09.887Z,99135.97
2023-01-13T16:38:38.142Z,99144.69
2023-01-13T16:41:08.380Z,99148.19
2023-01-13T16:43:36.035Z,99155.72
2023-01-13T16:46:24.441Z,99157.56
2023-01-13T16:48:56.892Z,99156.44
2023-01-13T16:51:25.053Z,99149.91
2023-01-13T16:53:52.378Z,99168.03
2023-01-13T16:56:30.672Z,99158.00
2023-01-13T16:59:08.080Z,99178.72
2023-01-13T17:01:42.980Z,99160.00
2023-01-13T17:04:19.238Z,99158.69
2023-01-13T17:07:00.492Z,99161.03
2023-01-13T17:09:30.152Z,99164.94
2023-01-13T17:12:00.554Z,99167.59
2023-01-13T17:14:27.353Z,99166.78
2023-01-13T17:16:59.698Z,99168.97
2023-01-13T17:19:26.756Z,99170.19
2023-01-13T17:21:53.808Z,99162.03
2023-01-13T17:24:21.239Z,99166.69
2023-01-13T17:26:51.350Z,99166.25
2023-01-13T17:29:25.773Z,99165.91
2023-01-13T17:31:53.264Z,99172.09
2023-01-13T17:34:21.322Z,99170.25
2023-01-13T17:36:48.786Z,99191.50
2023-01-13T17:39:25.998Z,99192.69
2023-01-13T17:41:55.785Z,99188.84
2023-01-13T17:44:23.546Z,99188.84
2023-01-13T17:46:50.945Z,99199.41
2023-01-13T17:49:21.727Z,99205.78
2023-01-13T17:51:51.244Z,99207.78
2023-01-13T17:54:19.397Z,99208.75
2023-01-13T17:56:46.192Z,99201.94
2023-01-13T17:59:16.654Z,99196.25
2023-01-13T18:01:44.417Z,99188.38
2023-01-13T18:04:18.770Z,99196.94
2023-01-13T18:06:46.197Z,99202.84
2023-01-13T18:09:13.529Z,99205.19
2023-01-13T18:11:41.125Z,99196.66
2023-01-13T18:14:12.368Z,99203.69
2023-01-13T18:16:39.814Z,99198.50
2023-01-13T18:19:28.537Z,99199.50
2023-01-13T18:22:13.780Z,99211.75
2023-01-13T18:25:02.416Z,99211.06
2023-01-13T18:27:35.799Z,99210.25
2023-01-13T18:30:09.113Z,99229.34
2023-01-13T18:32:36.111Z,99226.34
2023-01-13T18:35:10.183Z,99225.34
2023-01-13T18:37:41.896Z,99232.56
2023-01-13T18:40:14.259Z,99241.09
2023-01-13T18:42:59.044Z,99244.94
2023-01-13T18:45:32.491Z,99246.47
2023-01-13T18:48:07.426Z,99246.97
2023-01-13T18:50:34.774Z,99246.97
2023-01-13T18:53:02.488Z,99249.13
2023-01-13T18:55:30.700Z,99247.63
2023-01-13T18:57:57.936Z,99252.50
2023-01-13T19:00:27.049Z,99257.03
2023-01-13T19:16:23.899Z,99275.06
2023-01-13T20:40:15.869Z,99425.06
2023-01-13T20:42:44.996Z,99430.13
2023-01-13T23:49:33.331Z,99817.78
